sensor_id;sensor_type;location;lat;lon;timestamp;pressure;altitude;pressure_sealevel;temperature;humidity
73671;BME280;61968;48.178;11.566;2023-04-08T00:01:01;95816.97;;;7.16;40.50
73671;BME280;61968;48.178;11.566;2023-04-08T00:03:28;95811.56;;;7.04;40.71
73671;BME280;61968;48.178;11.566;2023-04-08T00:05:54;95812.94;;;7.13;40.35
73671;BME280;61968;48.178;11.566;2023-04-08T00:08:21;95819.81;;;7.14;40.58
73671;BME280;61968;48.178;11.566;2023-04-08T00:10:47;95821.03;;;7.12;40.84
73671;BME280;61968;48.178;11.566;2023-04-08T00:13:14;95824.47;;;7.06;40.92
73671;BME280;61968;48.178;11.566;2023-04-08T00:15:42;95824.09;;;7.02;41.14
73671;BME280;61968;48.178;11.566;2023-04-08T00:18:08;95826.50;;;6.97;41.49
73671;BME280;61968;48.178;11.566;2023-04-08T00:20:35;95829.59;;;6.74;42.03
73671;BME280;61968;48.178;11.566;2023-04-08T00:23:01;95821.50;;;6.49;42.63
73671;BME280;61968;48.178;11.566;2023-04-08T00:25:28;95827.97;;;6.66;42.27
73671;BME280;61968;48.178;11.566;2023-04-08T00:27:54;95825.31;;;6.80;41.88
73671;BME280;61968;48.178;11.566;2023-04-08T00:30:21;95826.34;;;6.92;41.45
73671;BME280;61968;48.178;11.566;2023-04-08T00:32:49;95828.38;;;6.83;41.84
73671;BME280;61968;48.178;11.566;2023-04-08T00:35:15;95826.94;;;6.87;41.52
73671;BME280;61968;48.178;11.566;2023-04-08T00:37:42;95833.81;;;6.68;41.99
73671;BME280;61968;48.178;11.566;2023-04-08T00:40:08;95835.66;;;6.74;42.07
73671;BME280;61968;48.178;11.566;2023-04-08T00:42:35;95836.06;;;6.71;42.29
73671;BME280;61968;48.178;11.566;2023-04-08T00:45:01;95829.78;;;6.66;42.22
73671;BME280;61968;48.178;11.566;2023-04-08T00:47:28;95827.97;;;6.66;42.04
73671;BME280;61968;48.178;11.566;2023-04-08T00:49:56;95825.34;;;6.60;42.48
73671;BME280;61968;48.178;11.566;2023-04-08T00:52:22;95831.63;;;6.59;42.66
73671;BME280;61968;48.178;11.566;2023-04-08T00:54:49;95831.41;;;6.54;42.60
73671;BME280;61968;48.178;11.566;2023-04-08T00:57:16;95827.34;;;6.58;42.76
73671;BME280;61968;48.178;11.566;2023-04-08T00:59:42;95826.53;;;6.64;42.45
73671;BME280;61968;48.178;11.566;2023-04-08T01:02:13;95820.09;;;6.60;42.44
73671;BME280;61968;48.178;11.566;2023-04-08T01:04:47;95824.31;;;6.47;43.01
73671;BME280;61968;48.178;11.566;2023-04-08T01:07:21;95829.38;;;6.36;43.34
73671;BME280;61968;48.178;11.566;2023-04-08T01:09:52;95830.19;;;6.36;42.86
73671;BME280;61968;48.178;11.566;2023-04-08T01:12:24;95820.91;;;6.47;43.04
73671;BME280;61968;48.178;11.566;2023-04-08T01:14:55;95818.88;;;6.36;43.24
73671;BME280;61968;48.178;11.566;2023-04-08T01:17:24;95822.50;;;6.48;42.86
73671;BME280;61968;48.178;11.566;2023-04-08T01:19:50;95817.66;;;6.51;43.24
73671;BME280;61968;48.178;11.566;2023-04-08T01:22:26;95830.19;;;6.36;43.33
73671;BME280;61968;48.178;11.566;2023-04-08T01:25:00;95820.47;;;6.37;43.44
73671;BME280;61968;48.178;11.566;2023-04-08T01:27:29;95817.66;;;6.45;42.95
73671;BME280;61968;48.178;11.566;2023-04-08T01:29:57;95826.94;;;6.54;42.92
73671;BME280;61968;48.178;11.566;2023-04-08T01:32:25;95825.31;;;6.33;43.25
73671;BME280;61968;48.178;11.566;2023-04-08T01:34:53;95817.22;;;6.28;43.42
73671;BME280;61968;48.178;11.566;2023-04-08T01:37:21;95825.94;;;6.28;43.57
73671;BME280;61968;48.178;11.566;2023-04-08T01:39:49;95824.09;;;6.22;43.81
73671;BME280;61968;48.178;11.566;2023-04-08T01:42:17;95825.53;;;6.32;43.42
73671;BME280;61968;48.178;11.566;2023-04-08T01:44:45;95817.44;;;6.40;43.29
73671;BME280;61968;48.178;11.566;2023-04-08T01:47:12;95822.91;;;6.38;43.30
73671;BME280;61968;48.178;11.566;2023-04-08T01:49:40;95828.97;;;6.32;43.32
73671;BME280;61968;48.178;11.566;2023-04-08T01:52:08;95824.53;;;6.33;43.15
73671;BME280;61968;48.178;11.566;2023-04-08T01:54:35;95824.53;;;6.26;43.37
73671;BME280;61968;48.178;11.566;2023-04-08T01:57:04;95830.31;;;6.21;43.64
73671;BME280;61968;48.178;11.566;2023-04-08T01:59:34;95822.03;;;6.24;43.60
73671;BME280;61968;48.178;11.566;2023-04-08T02:02:04;95828.50;;;6.22;43.55
73671;BME280;61968;48.178;11.566;2023-04-08T02:04:35;95823.63;;;5.92;44.61
73671;BME280;61968;48.178;11.566;2023-04-08T02:07:02;95837.38;;;6.07;44.08
73671;BME280;61968;48.178;11.566;2023-04-08T02:09:29;95822.84;;;6.05;44.09
73671;BME280;61968;48.178;11.566;2023-04-08T02:11:56;95820.81;;;6.07;43.57
73671;BME280;61968;48.178;11.566;2023-04-08T02:14:22;95827.28;;;6.04;44.16
73671;BME280;61968;48.178;11.566;2023-04-08T02:16:53;95822.66;;;6.13;43.81
73671;BME280;61968;48.178;11.566;2023-04-08T02:19:24;95827.44;;;5.90;44.59
73671;BME280;61968;48.178;11.566;2023-04-08T02:21:57;95825.03;;;5.95;44.49
73671;BME280;61968;48.178;11.566;2023-04-08T02:24:26;95824.59;;;5.84;44.70
73671;BME280;61968;48.178;11.566;2023-04-08T02:26:55;95836.13;;;5.90;44.58
73671;BME280;61968;48.178;11.566;2023-04-08T02:29:22;95832.47;;;5.91;44.79
73671;BME280;61968;48.178;11.566;2023-04-08T02:31:50;95823.19;;;5.89;44.68
73671;BME280;61968;48.178;11.566;2023-04-08T02:34:19;95829.69;;;5.93;44.53
73671;BME280;61968;48.178;11.566;2023-04-08T02:36:48;95829.06;;;5.91;44.52
73671;BME280;61968;48.178;11.566;2023-04-08T02:39:15;95828.84;;;5.86;44.37
73671;BME280;61968;48.178;11.566;2023-04-08T02:41:42;95826.84;;;6.01;44.29
73671;BME280;61968;48.178;11.566;2023-04-08T02:44:08;95824.63;;;5.91;44.64
73671;BME280;61968;48.178;11.566;2023-04-08T02:46:35;95824.59;;;5.84;44.62
73671;BME280;61968;48.178;11.566;2023-04-08T02:49:01;95821.16;;;5.77;44.90
73671;BME280;61968;48.178;11.566;2023-04-08T02:51:27;95826.16;;;5.66;45.13
73671;BME280;61968;48.178;11.566;2023-04-08T02:53:55;95825.38;;;5.65;45.22
73671;BME280;61968;48.178;11.566;2023-04-08T02:56:22;95827.16;;;5.65;45.39
73671;BME280;61968;48.178;11.566;2023-04-08T02:58:48;95827.13;;;5.58;45.48
73671;BME280;61968;48.178;11.566;2023-04-08T03:01:16;95824.50;;;5.58;45.57
73671;BME280;61968;48.178;11.566;2023-04-08T03:03:42;95822.66;;;5.52;45.69
73671;BME280;61968;48.178;11.566;2023-04-08T03:06:09;95819.19;;;5.38;46.16
73671;BME280;61968;48.178;11.566;2023-04-08T03:08:35;95827.53;;;5.61;45.32
73671;BME280;61968;48.178;11.566;2023-04-08T03:11:03;95828.38;;;5.62;45.60
73671;BME280;61968;48.178;11.566;2023-04-08T03:13:29;95832.41;;;5.65;45.53
73671;BME280;61968;48.178;11.566;2023-04-08T03:15:56;95838.09;;;5.68;45.12
73671;BME280;61968;48.178;11.566;2023-04-08T03:18:22;95834.44;;;5.63;45.45
73671;BME280;61968;48.178;11.566;2023-04-08T03:20:49;95836.69;;;5.31;46.72
73671;BME280;61968;48.178;11.566;2023-04-08T03:23:15;95829.59;;;5.25;46.93
73671;BME280;61968;48.178;11.566;2023-04-08T03:25:42;95836.81;;;5.51;45.99
73671;BME280;61968;48.178;11.566;2023-04-08T03:28:10;95831.41;;;5.59;45.86
73671;BME280;61968;48.178;11.566;2023-04-08T03:30:36;95840.47;;;5.63;45.88
73671;BME280;61968;48.178;11.566;2023-04-08T03:33:02;95842.84;;;5.51;46.19
73671;BME280;61968;48.178;11.566;2023-04-08T03:35:32;95838.59;;;5.09;47.51
73671;BME280;61968;48.178;11.566;2023-04-08T03:37:58;95841.84;;;5.11;47.49
73671;BME280;61968;48.178;11.566;2023-04-08T03:40:25;95840.66;;;5.13;47.07
73671;BME280;61968;48.178;11.566;2023-04-08T03:42:51;95837.56;;;5.38;47.04
73671;BME280;61968;48.178;11.566;2023-04-08T03:45:19;95846.50;;;5.57;46.43
73671;BME280;61968;48.178;11.566;2023-04-08T03:47:46;95847.03;;;5.39;46.82
73671;BME280;61968;48.178;11.566;2023-04-08T03:50:12;95844.25;;;5.47;46.56
73671;BME280;61968;48.178;11.566;2023-04-08T03:52:39;95847.28;;;5.51;46.60
73671;BME280;61968;48.178;11.566;2023-04-08T03:55:07;95841.25;;;5.50;46.53
73671;BME280;61968;48.178;11.566;2023-04-08T03:57:33;95849.69;;;5.46;46.67
73671;BME280;61968;48.178;11.566;2023-04-08T04:00:00;95852.69;;;5.43;46.89
73671;BME280;61968;48.178;11.566;2023-04-08T04:02:27;95849.69;;;5.46;46.72
73671;BME280;61968;48.178;11.566;2023-04-08T04:04:54;95848.00;;;5.31;47.32
73671;BME280;61968;48.178;11.566;2023-04-08T04:07:20;95855.66;;;5.26;47.48
73671;BME280;61968;48.178;11.566;2023-04-08T04:09:47;95851.72;;;5.09;48.25
73671;BME280;61968;48.178;11.566;2023-04-08T04:12:13;95859.44;;;5.17;48.10
73671;BME280;61968;48.178;11.566;2023-04-08T04:14:39;95862.09;;;5.30;47.83
73671;BME280;61968;48.178;11.566;2023-04-08T04:17:06;95868.22;;;5.37;47.53
73671;BME280;61968;48.178;11.566;2023-04-08T04:19:33;95866.97;;;5.33;47.40
73671;BME280;61968;48.178;11.566;2023-04-08T04:22:00;95873.06;;;5.41;47.30
73671;BME280;61968;48.178;11.566;2023-04-08T04:24:27;95874.41;;;5.30;47.52
73671;BME280;61968;48.178;11.566;2023-04-08T04:26:53;95869.91;;;5.58;46.90
73671;BME280;61968;48.178;11.566;2023-04-08T04:29:20;95876.03;;;5.72;46.48
73671;BME280;61968;48.178;11.566;2023-04-08T04:31:47;95881.28;;;5.72;46.51
73671;BME280;61968;48.178;11.566;2023-04-08T04:34:13;95879.88;;;5.76;46.22
73671;BME280;61968;48.178;11.566;2023-04-08T04:36:41;95875.38;;;5.64;46.80
73671;BME280;61968;48.178;11.566;2023-04-08T04:39:07;95885.50;;;5.73;46.56
73671;BME280;61968;48.178;11.566;2023-04-08T04:41:34;95888.53;;;5.70;46.54
73671;BME280;61968;48.178;11.566;2023-04-08T04:44:04;95880.16;;;5.47;47.52
73671;BME280;61968;48.178;11.566;2023-04-08T04:46:31;95895.34;;;5.23;48.08
73671;BME280;61968;48.178;11.566;2023-04-08T04:48:57;95890.16;;;5.30;47.95
73671;BME280;61968;48.178;11.566;2023-04-08T04:51:24;95890.28;;;5.50;47.64
73671;BME280;61968;48.178;11.566;2023-04-08T04:53:52;95888.53;;;5.70;46.87
73671;BME280;61968;48.178;11.566;2023-04-08T04:56:19;95886.97;;;5.82;46.59
73671;BME280;61968;48.178;11.566;2023-04-08T04:58:45;95892.19;;;5.76;46.57
73671;BME280;61968;48.178;11.566;2023-04-08T05:01:12;95894.63;;;5.77;46.79
73671;BME280;61968;48.178;11.566;2023-04-08T05:03:38;95890.94;;;5.65;47.09
73671;BME280;61968;48.178;11.566;2023-04-08T05:06:04;95887.06;;;5.61;47.41
73671;BME280;61968;48.178;11.566;2023-04-08T05:08:31;95895.19;;;5.66;47.17
73671;BME280;61968;48.178;11.566;2023-04-08T05:10:58;95892.13;;;5.56;47.30
73671;BME280;61968;48.178;11.566;2023-04-08T05:13:26;95899.97;;;5.56;47.54
73671;BME280;61968;48.178;11.566;2023-04-08T05:15:53;95903.03;;;5.66;47.30
73671;BME280;61968;48.178;11.566;2023-04-08T05:18:19;95901.81;;;5.62;47.41
73671;BME280;61968;48.178;11.566;2023-04-08T05:20:45;95900.34;;;5.18;48.52
73671;BME280;61968;48.178;11.566;2023-04-08T05:23:12;95903.41;;;5.22;48.61
73671;BME280;61968;48.178;11.566;2023-04-08T05:25:38;95908.38;;;5.45;48.09
73671;BME280;61968;48.178;11.566;2023-04-08T05:28:06;95902.94;;;5.11;48.81
73671;BME280;61968;48.178;11.566;2023-04-08T05:30:32;95896.66;;;5.06;49.24
73671;BME280;61968;48.178;11.566;2023-04-08T05:32:59;95902.41;;;5.23;48.72
73671;BME280;61968;48.178;11.566;2023-04-08T05:35:26;95898.47;;;5.40;48.65
73671;BME280;61968;48.178;11.566;2023-04-08T05:37:52;95898.97;;;5.57;48.02
73671;BME280;61968;48.178;11.566;2023-04-08T05:40:18;95901.00;;;5.61;47.83
73671;BME280;61968;48.178;11.566;2023-04-08T05:42:45;95906.44;;;5.60;47.90
73671;BME280;61968;48.178;11.566;2023-04-08T05:45:13;95901.25;;;5.73;47.43
73671;BME280;61968;48.178;11.566;2023-04-08T05:47:40;95897.19;;;5.64;48.03
73671;BME280;61968;48.178;11.566;2023-04-08T05:50:07;95906.72;;;5.72;47.61
73671;BME280;61968;48.178;11.566;2023-04-08T05:52:33;95909.06;;;5.60;47.94
73671;BME280;61968;48.178;11.566;2023-04-08T05:54:59;95909.06;;;5.60;48.14
73671;BME280;61968;48.178;11.566;2023-04-08T05:57:26;95901.81;;;5.62;48.19
73671;BME280;61968;48.178;11.566;2023-04-08T05:59:52;95909.34;;;5.78;47.57
73671;BME280;61968;48.178;11.566;2023-04-08T06:02:20;95913.16;;;5.69;48.19
73671;BME280;61968;48.178;11.566;2023-04-08T06:04:46;95913.00;;;5.77;47.92
73671;BME280;61968;48.178;11.566;2023-04-08T06:07:13;95914.06;;;5.90;47.77
73671;BME280;61968;48.178;11.566;2023-04-08T06:09:39;95913.44;;;5.88;47.74
73671;BME280;61968;48.178;11.566;2023-04-08T06:12:05;95923.94;;;5.88;47.97
73671;BME280;61968;48.178;11.566;2023-04-08T06:14:32;95927.81;;;5.98;47.27
73671;BME280;61968;48.178;11.566;2023-04-08T06:16:58;95928.81;;;5.97;47.66
73671;BME280;61968;48.178;11.566;2023-04-08T06:19:26;95931.41;;;5.91;47.88
73671;BME280;61968;48.178;11.566;2023-04-08T06:21:52;95931.81;;;5.94;47.66
73671;BME280;61968;48.178;11.566;2023-04-08T06:24:23;95932.97;;;5.78;48.31
73671;BME280;61968;48.178;11.566;2023-04-08T06:26:50;95939.03;;;5.86;48.22
73671;BME280;61968;48.178;11.566;2023-04-08T06:29:17;95927.66;;;5.65;48.63
73671;BME280;61968;48.178;11.566;2023-04-08T06:31:43;95935.03;;;5.83;48.37
73671;BME280;61968;48.178;11.566;2023-04-08T06:34:10;95936.38;;;5.72;48.48
73671;BME280;61968;48.178;11.566;2023-04-08T06:36:37;95941.25;;;5.82;48.26
73671;BME280;61968;48.178;11.566;2023-04-08T06:39:04;95934.00;;;5.84;47.99
73671;BME280;61968;48.178;11.566;2023-04-08T06:41:30;95942.03;;;5.76;48.56
73671;BME280;61968;48.178;11.566;2023-04-08T06:43:57;95945.44;;;5.70;48.74
73671;BME280;61968;48.178;11.566;2023-04-08T06:46:24;95952.75;;;5.74;48.17
73671;BME280;61968;48.178;11.566;2023-04-08T06:48:50;95948.88;;;5.35;49.83
73671;BME280;61968;48.178;11.566;2023-04-08T06:51:17;95952.97;;;5.45;49.19
73671;BME280;61968;48.178;11.566;2023-04-08T06:53:44;95952.94;;;5.38;49.40
73671;BME280;61968;48.178;11.566;2023-04-08T06:56:11;95948.22;;;5.27;49.36
73671;BME280;61968;48.178;11.566;2023-04-08T06:58:38;95954.59;;;4.89;50.33
73671;BME280;61968;48.178;11.566;2023-04-08T07:01:04;95959.13;;;5.02;50.84
73671;BME280;61968;48.178;11.566;2023-04-08T07:03:31;95958.34;;;5.36;49.28
73671;BME280;61968;48.178;11.566;2023-04-08T07:05:57;95958.06;;;5.53;48.66
73671;BME280;61968;48.178;11.566;2023-04-08T07:08:23;95966.81;;;5.67;48.51
73671;BME280;61968;48.178;11.566;2023-04-08T07:10:52;95965.03;;;5.39;48.78
73671;BME280;61968;48.178;11.566;2023-04-08T07:13:18;95965.34;;;5.23;48.74
73671;BME280;61968;48.178;11.566;2023-04-08T07:15:45;95968.22;;;5.06;49.09
73671;BME280;61968;48.178;11.566;2023-04-08T07:18:11;95976.84;;;5.28;49.26
73671;BME280;61968;48.178;11.566;2023-04-08T07:20:37;95974.44;;;5.27;48.56
73671;BME280;61968;48.178;11.566;2023-04-08T07:23:04;95978.44;;;5.23;48.46
73671;BME280;61968;48.178;11.566;2023-04-08T07:25:32;95976.31;;;5.40;47.72
73671;BME280;61968;48.178;11.566;2023-04-08T07:27:59;95977.13;;;5.68;47.11
73671;BME280;61968;48.178;11.566;2023-04-08T07:30:26;95977.34;;;5.73;46.45
73671;BME280;61968;48.178;11.566;2023-04-08T07:32:52;95981.88;;;5.86;45.41
73671;BME280;61968;48.178;11.566;2023-04-08T07:35:19;95988.47;;;5.75;43.15
73671;BME280;61968;48.178;11.566;2023-04-08T07:37:48;95988.69;;;5.80;43.46
73671;BME280;61968;48.178;11.566;2023-04-08T07:40:15;95989.75;;;5.86;43.99
73671;BME280;61968;48.178;11.566;2023-04-08T07:42:41;95991.22;;;6.02;43.58
73671;BME280;61968;48.178;11.566;2023-04-08T07:45:10;95989.00;;;5.99;43.06
73671;BME280;61968;48.178;11.566;2023-04-08T07:47:36;95984.81;;;6.18;42.78
73671;BME280;61968;48.178;11.566;2023-04-08T07:50:03;95986.00;;;6.09;41.69
73671;BME280;61968;48.178;11.566;2023-04-08T07:52:30;95986.19;;;6.07;40.69
73671;BME280;61968;48.178;11.566;2023-04-08T07:54:56;95985.72;;;5.90;40.96
73671;BME280;61968;48.178;11.566;2023-04-08T07:57:23;95987.13;;;5.86;40.80
73671;BME280;61968;48.178;11.566;2023-04-08T07:59:49;95981.00;;;5.79;40.69
73671;BME280;61968;48.178;11.566;2023-04-08T08:02:17;95985.34;;;6.00;40.18
73671;BME280;61968;48.178;11.566;2023-04-08T08:04:44;95988.13;;;5.92;40.61
73671;BME280;61968;48.178;11.566;2023-04-08T08:07:10;95988.47;;;6.17;40.17
73671;BME280;61968;48.178;11.566;2023-04-08T08:09:37;95992.09;;;6.16;39.39
73671;BME280;61968;48.178;11.566;2023-04-08T08:12:03;95983.91;;;5.97;39.52
73671;BME280;61968;48.178;11.566;2023-04-08T08:14:30;95995.22;;;5.98;39.07
73671;BME280;61968;48.178;11.566;2023-04-08T08:16:56;96000.47;;;5.98;39.05
73671;BME280;61968;48.178;11.566;2023-04-08T08:19:24;95996.69;;;6.07;38.48
73671;BME280;61968;48.178;11.566;2023-04-08T08:21:50;95998.25;;;5.95;37.97
73671;BME280;61968;48.178;11.566;2023-04-08T08:24:17;96000.53;;;5.70;38.04
73671;BME280;61968;48.178;11.566;2023-04-08T08:26:44;95999.38;;;5.44;38.63
73671;BME280;61968;48.178;11.566;2023-04-08T08:29:11;95999.41;;;5.51;38.71
73671;BME280;61968;48.178;11.566;2023-04-08T08:31:37;96002.19;;;5.77;38.81
73671;BME280;61968;48.178;11.566;2023-04-08T08:34:04;96008.59;;;5.68;38.59
73671;BME280;61968;48.178;11.566;2023-04-08T08:36:32;96019.09;;;5.40;39.41
73671;BME280;61968;48.178;11.566;2023-04-08T08:38:58;96022.75;;;5.46;39.75
73671;BME280;61968;48.178;11.566;2023-04-08T08:41:25;96020.00;;;5.54;39.18
73671;BME280;61968;48.178;11.566;2023-04-08T08:43:52;96016.38;;;5.55;39.78
73671;BME280;61968;48.178;11.566;2023-04-08T08:46:19;96012.09;;;4.98;41.63
73671;BME280;61968;48.178;11.566;2023-04-08T08:48:46;96020.84;;;5.05;42.07
73671;BME280;61968;48.178;11.566;2023-04-08T08:51:12;96025.59;;;5.44;42.06
73671;BME280;61968;48.178;11.566;2023-04-08T08:53:40;96030.25;;;5.21;43.09
73671;BME280;61968;48.178;11.566;2023-04-08T08:56:10;96032.78;;;5.35;42.95
73671;BME280;61968;48.178;11.566;2023-04-08T08:58:37;96033.47;;;5.44;42.65
73671;BME280;61968;48.178;11.566;2023-04-08T09:01:31;96036.31;;;5.00;42.27
73671;BME280;61968;48.178;11.566;2023-04-08T09:04:09;96039.56;;;5.02;42.65
73671;BME280;61968;48.178;11.566;2023-04-08T09:06:36;96036.25;;;4.78;43.09
73671;BME280;61968;48.178;11.566;2023-04-08T09:09:04;96040.91;;;4.10;43.52
73671;BME280;61968;48.178;11.566;2023-04-08T09:11:35;96035.25;;;4.43;42.81
73671;BME280;61968;48.178;11.566;2023-04-08T09:14:01;96047.94;;;3.95;43.49
73671;BME280;61968;48.178;11.566;2023-04-08T09:16:29;96042.53;;;3.82;44.05
73671;BME280;61968;48.178;11.566;2023-04-08T09:19:07;96036.94;;;4.29;43.76
73671;BME280;61968;48.178;11.566;2023-04-08T09:21:34;96042.34;;;4.64;43.26
73671;BME280;61968;48.178;11.566;2023-04-08T09:24:01;96046.91;;;4.91;43.36
73671;BME280;61968;48.178;11.566;2023-04-08T09:26:28;96035.16;;;4.51;42.24
73671;BME280;61968;48.178;11.566;2023-04-08T09:29:00;96042.03;;;4.88;42.26
73671;BME280;61968;48.178;11.566;2023-04-08T09:31:28;96043.13;;;4.43;42.12
73671;BME280;61968;48.178;11.566;2023-04-08T09:33:56;96050.47;;;4.18;42.66
73671;BME280;61968;48.178;11.566;2023-04-08T09:36:23;96050.00;;;4.44;42.78
73671;BME280;61968;48.178;11.566;2023-04-08T09:38:51;96051.59;;;4.81;41.63
73671;BME280;61968;48.178;11.566;2023-04-08T09:41:19;96050.75;;;4.74;42.38
73671;BME280;61968;48.178;11.566;2023-04-08T09:43:50;96042.50;;;4.77;42.24
73671;BME280;61968;48.178;11.566;2023-04-08T09:46:25;96047.09;;;5.11;41.63
73671;BME280;61968;48.178;11.566;2023-04-08T09:48:57;96043.59;;;5.26;41.03
73671;BME280;61968;48.178;11.566;2023-04-08T09:51:30;96037.00;;;5.36;41.20
73671;BME280;61968;48.178;11.566;2023-04-08T09:54:00;96037.00;;;5.36;41.03
73671;BME280;61968;48.178;11.566;2023-04-08T09:56:33;96035.47;;;5.21;41.43
73671;BME280;61968;48.178;11.566;2023-04-08T09:59:08;96036.41;;;5.34;41.48
73671;BME280;61968;48.178;11.566;2023-04-08T10:01:38;96030.28;;;5.27;41.37
73671;BME280;61968;48.178;11.566;2023-04-08T10:04:07;96039.66;;;4.94;41.69
73671;BME280;61968;48.178;11.566;2023-04-08T10:06:35;96031.88;;;4.64;42.93
73671;BME280;61968;48.178;11.566;2023-04-08T10:09:03;96032.97;;;5.12;42.12
73671;BME280;61968;48.178;11.566;2023-04-08T10:11:32;96035.44;;;5.42;41.84
73671;BME280;61968;48.178;11.566;2023-04-08T10:13:59;96036.50;;;5.48;41.45
73671;BME280;61968;48.178;11.566;2023-04-08T10:16:27;96037.06;;;5.43;41.95
73671;BME280;61968;48.178;11.566;2023-04-08T10:18:54;96032.81;;;5.42;41.68
73671;BME280;61968;48.178;11.566;2023-04-08T10:21:34;96036.03;;;5.37;42.05
73671;BME280;61968;48.178;11.566;2023-04-08T10:24:01;96037.34;;;5.55;42.06
73671;BME280;61968;48.178;11.566;2023-04-08T10:26:36;96039.38;;;5.53;41.83
73671;BME280;61968;48.178;11.566;2023-04-08T10:29:29;96039.78;;;5.07;42.57
73671;BME280;61968;48.178;11.566;2023-04-08T10:31:57;96036.84;;;5.38;42.36
73671;BME280;61968;48.178;11.566;2023-04-08T10:34:24;96033.78;;;5.34;42.37
73671;BME280;61968;48.178;11.566;2023-04-08T10:36:52;96030.88;;;5.51;42.10
73671;BME280;61968;48.178;11.566;2023-04-08T10:39:19;96039.63;;;5.36;42.07
73671;BME280;61968;48.178;11.566;2023-04-08T10:41:47;96028.44;;;5.00;42.79
73671;BME280;61968;48.178;11.566;2023-04-08T10:44:17;96037.78;;;5.09;42.86
73671;BME280;61968;48.178;11.566;2023-04-08T10:46:43;96036.22;;;5.36;42.65
73671;BME280;61968;48.178;11.566;2023-04-08T10:49:11;96041.28;;;4.95;43.11
73671;BME280;61968;48.178;11.566;2023-04-08T10:51:38;96041.28;;;5.16;43.11
73671;BME280;61968;48.178;11.566;2023-04-08T10:54:05;96036.41;;;5.34;42.70
73671;BME280;61968;48.178;11.566;2023-04-08T10:56:32;96034.41;;;5.36;42.59
73671;BME280;61968;48.178;11.566;2023-04-08T10:58:59;96039.66;;;5.15;43.16
73671;BME280;61968;48.178;11.566;2023-04-08T11:01:26;96041.75;;;4.83;44.08
73671;BME280;61968;48.178;11.566;2023-04-08T11:03:54;96047.31;;;4.95;43.86
73671;BME280;61968;48.178;11.566;2023-04-08T11:06:21;96046.91;;;4.91;43.76
73671;BME280;61968;48.178;11.566;2023-04-08T11:08:49;96044.50;;;4.75;44.55
73671;BME280;61968;48.178;11.566;2023-04-08T11:11:15;96042.03;;;4.74;44.46
73671;BME280;61968;48.178;11.566;2023-04-08T11:13:44;96046.09;;;4.76;44.80
73671;BME280;61968;48.178;11.566;2023-04-08T11:16:11;96048.28;;;5.09;44.12
73671;BME280;61968;48.178;11.566;2023-04-08T11:18:39;96049.41;;;5.21;44.14
73671;BME280;61968;48.178;11.566;2023-04-08T11:21:08;96042.31;;;5.43;43.87
73671;BME280;61968;48.178;11.566;2023-04-08T11:23:36;96048.28;;;5.58;43.81
73671;BME280;61968;48.178;11.566;2023-04-08T11:26:03;96055.59;;;5.63;43.62
73671;BME280;61968;48.178;11.566;2023-04-08T11:28:30;96047.09;;;5.61;43.61
73671;BME280;61968;48.178;11.566;2023-04-08T11:30:58;96046.81;;;5.77;43.25
73671;BME280;61968;48.178;11.566;2023-04-08T11:33:25;96045.56;;;5.73;43.21
73671;BME280;61968;48.178;11.566;2023-04-08T11:35:51;96044.78;;;5.79;43.24
73671;BME280;61968;48.178;11.566;2023-04-08T11:38:21;96055.19;;;5.66;43.36
73671;BME280;61968;48.178;11.566;2023-04-08T11:40:52;96053.56;;;5.37;44.12
73671;BME280;61968;48.178;11.566;2023-04-08T11:43:19;96059.56;;;5.31;44.42
73671;BME280;61968;48.178;11.566;2023-04-08T11:45:49;96056.91;;;5.52;44.04
73671;BME280;61968;48.178;11.566;2023-04-08T11:48:16;96054.41;;;5.66;42.80
73671;BME280;61968;48.178;11.566;2023-04-08T11:50:43;96054.53;;;5.57;42.77
73671;BME280;61968;48.178;11.566;2023-04-08T11:53:16;96058.22;;;5.63;42.27
73671;BME280;61968;48.178;11.566;2023-04-08T11:55:43;96049.69;;;5.33;42.37
73671;BME280;61968;48.178;11.566;2023-04-08T11:58:14;96056.63;;;5.41;42.82
73671;BME280;61968;48.178;11.566;2023-04-08T12:00:40;96058.53;;;5.53;42.23
73671;BME280;61968;48.178;11.566;2023-04-08T12:03:08;96064.13;;;5.44;42.51
73671;BME280;61968;48.178;11.566;2023-04-08T12:05:35;96067.13;;;5.41;42.53
73671;BME280;61968;48.178;11.566;2023-04-08T12:08:01;96070.69;;;5.11;43.31
73671;BME280;61968;48.178;11.566;2023-04-08T12:10:28;96067.75;;;5.21;42.98
73671;BME280;61968;48.178;11.566;2023-04-08T12:12:55;96075.66;;;4.70;43.96
73671;BME280;61968;48.178;11.566;2023-04-08T12:15:22;96071.75;;;4.96;43.60
73671;BME280;61968;48.178;11.566;2023-04-08T12:17:49;96078.88;;;5.02;43.85
73671;BME280;61968;48.178;11.566;2023-04-08T12:20:15;96077.75;;;5.11;43.73
73671;BME280;61968;48.178;11.566;2023-04-08T12:22:42;96071.91;;;5.37;43.06
73671;BME280;61968;48.178;11.566;2023-04-08T12:25:09;96078.03;;;5.44;43.71
73671;BME280;61968;48.178;11.566;2023-04-08T12:27:35;96076.78;;;5.40;43.04
73671;BME280;61968;48.178;11.566;2023-04-08T12:30:02;96082.41;;;5.15;43.59
73671;BME280;61968;48.178;11.566;2023-04-08T12:32:30;96082.25;;;5.17;43.65
73671;BME280;61968;48.178;11.566;2023-04-08T12:34:56;96083.84;;;4.97;44.22
73671;BME280;61968;48.178;11.566;2023-04-08T12:37:23;96082.47;;;5.01;44.34
73671;BME280;61968;48.178;11.566;2023-04-08T12:39:49;96083.34;;;5.08;44.29
73671;BME280;61968;48.178;11.566;2023-04-08T12:42:15;96087.09;;;5.20;43.88
73671;BME280;61968;48.178;11.566;2023-04-08T12:44:42;96091.41;;;5.28;43.97
73671;BME280;61968;48.178;11.566;2023-04-08T12:47:08;96086.56;;;5.31;43.47
73671;BME280;61968;48.178;11.566;2023-04-08T12:49:36;96081.22;;;5.40;43.74
73671;BME280;61968;48.178;11.566;2023-04-08T12:52:02;96091.53;;;5.20;43.83
73671;BME280;61968;48.178;11.566;2023-04-08T12:54:29;96086.34;;;5.05;44.72
73671;BME280;61968;48.178;11.566;2023-04-08T12:56:56;96094.06;;;5.13;44.76
73671;BME280;61968;48.178;11.566;2023-04-08T12:59:23;96098.03;;;5.24;44.17
73671;BME280;61968;48.178;11.566;2023-04-08T13:01:49;96088.47;;;5.37;43.86